Kefallinia Airport


Codes: LGKF/EFL
Name: Kefallinia Airport
City: Kefallinia Island
Country: Greece
Elevation: 59 ft.
Wikipedia:

Photos at Kefallinia Airport


   Photos courtesy of SpottingLog. You can add your own sightings and photos by signing up for a free trial today.



No photos found.

Weather at Kefallinia Airport


Time (UTC)DescriptionTempratureWindCloud coverageVisibilityPressureHumidity
21-Jun-2024 12:00Clear Sky33°C2 mph, W0%10000m1012hPa49%
21-Jun-2024 15:00Clear Sky32°C9 mph, NW0%10000m1012hPa50%
21-Jun-2024 18:00Clear Sky29°C9 mph, N0%10000m1012hPa56%
21-Jun-2024 21:00Clear Sky27°C4 mph, N0%10000m1012hPa51%
22-Jun-2024 00:00Clear Sky28°C7 mph, NE0%10000m1011hPa47%
22-Jun-2024 03:00Clear Sky26°C0 mph, NW0%10000m1010hPa59%
22-Jun-2024 06:00Clear Sky29°C2 mph, NW0%10000m1010hPa57%
22-Jun-2024 09:00Clear Sky31°C4 mph, NW0%10000m1010hPa52%
22-Jun-2024 12:00Clear Sky31°C11 mph, NW0%10000m1009hPa50%
22-Jun-2024 15:00Clear Sky30°C13 mph, NW0%10000m1008hPa52%
22-Jun-2024 18:00Clear Sky26°C11 mph, NW0%10000m1008hPa66%
22-Jun-2024 21:00Clear Sky26°C9 mph, NW0%10000m1008hPa63%
23-Jun-2024 00:00Clear Sky26°C4 mph, NW0%10000m1007hPa56%
23-Jun-2024 03:00Clear Sky24°C7 mph, N0%10000m1007hPa68%
23-Jun-2024 06:00Clear Sky28°C4 mph, NW0%10000m1007hPa57%
23-Jun-2024 09:00Clear Sky30°C9 mph, W5%10000m1007hPa61%
23-Jun-2024 12:00Clear Sky30°C11 mph, W5%10000m1006hPa58%
23-Jun-2024 15:00Clear Sky28°C16 mph, NW2%10000m1007hPa66%
23-Jun-2024 18:00Clear Sky25°C11 mph, NW1%10000m1008hPa73%
23-Jun-2024 21:00Clear Sky24°C11 mph, NW0%10000m1009hPa70%
24-Jun-2024 00:00Clear Sky24°C11 mph, NW0%10000m1009hPa67%
24-Jun-2024 03:00Clear Sky23°C11 mph, NW0%10000m1009hPa78%
24-Jun-2024 06:00Clear Sky26°C9 mph, NW0%10000m1009hPa59%
24-Jun-2024 09:00Clear Sky28°C9 mph, NW0%10000m1010hPa53%
24-Jun-2024 12:00Clear Sky28°C16 mph, W2%10000m1010hPa56%
24-Jun-2024 15:00Clear Sky27°C13 mph, NW3%10000m1010hPa65%
24-Jun-2024 18:00Few Clouds23°C11 mph, NW17%10000m1011hPa87%
24-Jun-2024 21:00Clear Sky23°C9 mph, N1%10000m1012hPa71%
25-Jun-2024 00:00Clear Sky23°C9 mph, N0%10000m1011hPa77%
25-Jun-2024 03:00Clear Sky23°C2 mph, NE0%10000m1010hPa67%
25-Jun-2024 06:00Clear Sky26°C13 mph, NW0%10000m1011hPa72%
25-Jun-2024 09:00Clear Sky29°C11 mph, N0%10000m1011hPa46%
25-Jun-2024 12:00Clear Sky30°C13 mph, NW0%10000m1011hPa42%
25-Jun-2024 15:00Scattered Clouds29°C16 mph, NW28%10000m1010hPa50%
25-Jun-2024 18:00Few Clouds29°C7 mph, NE22%10000m1008hPa37%
25-Jun-2024 21:00Scattered Clouds25°C9 mph, NW40%10000m1010hPa66%
26-Jun-2024 00:00Scattered Clouds25°C4 mph, E28%10000m1009hPa60%
26-Jun-2024 03:00Clear Sky24°C7 mph, NE1%10000m1009hPa70%
26-Jun-2024 06:00Scattered Clouds29°C4 mph, SE34%10000m1009hPa49%
26-Jun-2024 09:00Broken Clouds31°C7 mph, S83%10000m1009hPa48%